createdAt,value
2022-12-25T00:02:03.834Z,79.30
2022-12-25T00:07:25.959Z,87.20
2022-12-25T00:12:47.568Z,78.50
2022-12-25T00:18:09.721Z,88.00
2022-12-25T00:23:32.471Z,96.40
2022-12-25T00:28:56.223Z,82.80
2022-12-25T00:34:18.217Z,37.90
2022-12-25T00:39:40.547Z,44.60
2022-12-25T00:45:02.579Z,47.40
2022-12-25T00:50:24.416Z,39.80
2022-12-25T00:55:52.135Z,40.60
2022-12-25T01:01:14.318Z,47.00
2022-12-25T01:06:36.514Z,42.30
2022-12-25T01:11:58.353Z,29.20
2022-12-25T01:17:20.126Z,33.10
2022-12-25T01:22:42.709Z,37.00
2022-12-25T01:28:05.136Z,30.50
2022-12-25T01:33:27.064Z,27.30
2022-12-25T01:38:52.511Z,49.00
2022-12-25T01:44:13.937Z,43.80
2022-12-25T01:49:38.170Z,51.10
2022-12-25T01:55:04.103Z,71.70
2022-12-25T02:00:25.663Z,52.60
2022-12-25T02:05:48.275Z,58.40
2022-12-25T02:11:30.373Z,62.20
2022-12-25T02:17:00.173Z,57.80
2022-12-25T02:22:46.957Z,59.60
2022-12-25T02:28:27.542Z,56.80
2022-12-25T02:34:16.066Z,59.00
2022-12-25T02:39:56.627Z,49.10
2022-12-25T02:45:43.733Z,70.30
2022-12-25T02:51:27.095Z,54.60
2022-12-25T02:57:08.682Z,49.90
2022-12-25T03:02:50.756Z,87.60
2022-12-25T03:08:20.534Z,57.40
2022-12-25T03:13:43.973Z,52.00
2022-12-25T03:19:25.532Z,72.90
2022-12-25T03:25:05.865Z,57.50
2022-12-25T03:30:55.965Z,52.50
2022-12-25T03:36:28.562Z,51.10
2022-12-25T03:42:11.964Z,57.70
2022-12-25T03:47:52.462Z,57.00
2022-12-25T03:53:39.377Z,54.00
2022-12-25T03:59:23.836Z,61.00
2022-12-25T04:05:04.381Z,57.40
2022-12-25T04:10:45.280Z,56.40
2022-12-25T04:16:26.255Z,56.60
2022-12-25T04:22:06.967Z,71.90
2022-12-25T04:27:48.263Z,82.90
2022-12-25T04:33:29.058Z,73.10
2022-12-25T04:38:51.300Z,60.10
2022-12-25T04:44:13.734Z,74.70
2022-12-25T04:49:35.558Z,44.60
2022-12-25T04:54:57.486Z,49.70
2022-12-25T05:00:19.927Z,52.10
2022-12-25T05:05:41.945Z,51.80
2022-12-25T05:11:08.963Z,79.20
2022-12-25T05:16:31.054Z,73.60
2022-12-25T05:21:53.748Z,71.70
2022-12-25T05:27:15.980Z,72.20
2022-12-25T05:32:37.709Z,68.70
2022-12-25T05:37:59.545Z,46.80
2022-12-25T05:43:21.785Z,63.90
2022-12-25T05:48:43.904Z,61.50
2022-12-25T05:54:05.726Z,59.80
2022-12-25T05:59:31.368Z,59.00
2022-12-25T06:04:52.899Z,67.00
2022-12-25T06:10:14.626Z,57.20
2022-12-25T06:15:40.287Z,55.80
2022-12-25T06:21:07.380Z,44.10
2022-12-25T06:26:29.014Z,46.60
2022-12-25T06:31:57.289Z,43.00
2022-12-25T06:37:20.046Z,43.00
2022-12-25T06:42:42.265Z,39.80
2022-12-25T06:48:04.193Z,41.00
2022-12-25T06:53:26.304Z,38.80
2022-12-25T06:58:50.542Z,46.30
2022-12-25T07:04:23.022Z,67.50
2022-12-25T07:09:44.948Z,51.10
2022-12-25T07:15:08.086Z,46.60
2022-12-25T07:20:30.322Z,40.50
2022-12-25T07:25:56.094Z,77.50
2022-12-25T07:31:18.708Z,107.20
2022-12-25T07:36:40.816Z,56.90
2022-12-25T07:42:02.945Z,40.00
2022-12-25T07:47:25.044Z,45.40
2022-12-25T07:52:47.159Z,43.40
2022-12-25T07:58:09.352Z,43.10
2022-12-25T08:03:32.125Z,46.00
2022-12-25T08:08:54.384Z,59.80
2022-12-25T08:14:16.525Z,48.30
2022-12-25T08:19:38.475Z,44.80
2022-12-25T08:25:00.389Z,39.50
2022-12-25T08:30:22.334Z,39.60
2022-12-25T08:35:44.457Z,31.40
2022-12-25T08:41:06.574Z,32.30
2022-12-25T08:46:28.720Z,33.70
2022-12-25T08:51:50.837Z,29.00
2022-12-25T08:57:13.072Z,35.80
2022-12-25T09:02:35.071Z,38.50
2022-12-25T09:07:57.126Z,39.70
2022-12-25T09:13:19.057Z,41.10
2022-12-25T09:18:41.218Z,61.80
2022-12-25T09:24:04.543Z,41.10
2022-12-25T09:29:26.248Z,53.90
2022-12-25T09:34:48.080Z,50.30
2022-12-25T09:40:15.580Z,49.40
2022-12-25T09:45:38.971Z,57.90
2022-12-25T09:51:08.759Z,54.90
2022-12-25T09:56:32.654Z,57.10
2022-12-25T10:02:16.769Z,43.40
2022-12-25T10:07:50.937Z,41.90
2022-12-25T10:13:19.096Z,59.70
2022-12-25T10:18:59.479Z,65.90
2022-12-25T10:24:41.375Z,64.20
2022-12-25T10:30:14.468Z,51.00
2022-12-25T10:35:38.183Z,40.20
2022-12-25T10:41:02.908Z,36.60
2022-12-25T10:46:27.873Z,44.10
2022-12-25T10:51:50.093Z,38.60
2022-12-25T10:57:17.741Z,36.40
2022-12-25T11:02:40.776Z,28.50
2022-12-25T11:08:03.895Z,36.00
2022-12-25T11:13:27.947Z,28.40
2022-12-25T11:18:52.591Z,31.90
2022-12-25T11:24:22.465Z,29.60
2022-12-25T11:29:47.791Z,25.00
2022-12-25T11:35:13.025Z,30.30
2022-12-25T11:40:56.527Z,28.70
2022-12-25T11:46:39.597Z,31.50
2022-12-25T11:52:02.004Z,23.10
2022-12-25T11:57:26.757Z,27.10
2022-12-25T12:02:58.867Z,20.70
2022-12-25T12:08:20.967Z,34.90
2022-12-25T12:13:57.588Z,30.90
2022-12-25T12:19:29.636Z,30.70
2022-12-25T12:25:05.108Z,35.00
2022-12-25T12:30:31.453Z,24.30
2022-12-25T12:35:53.732Z,24.80
2022-12-25T12:41:16.510Z,34.70
2022-12-25T12:46:40.104Z,32.90
2022-12-25T12:52:10.591Z,38.10
2022-12-25T12:57:39.326Z,34.40
2022-12-25T13:03:16.460Z,34.50
2022-12-25T13:08:58.062Z,34.30
2022-12-25T13:14:22.880Z,38.20
2022-12-25T13:19:45.135Z,62.00
2022-12-25T13:25:18.996Z,52.10
2022-12-25T13:30:40.934Z,54.20
2022-12-25T13:36:04.465Z,40.10
2022-12-25T13:42:03.527Z,256.90
2022-12-25T13:53:16.286Z,241.80
2022-12-25T13:58:39.756Z,104.00
2022-12-25T14:04:01.851Z,75.20
2022-12-25T14:09:24.178Z,77.20
2022-12-25T14:14:46.379Z,66.20
2022-12-25T14:20:22.468Z,65.70
2022-12-25T14:25:46.087Z,43.10
2022-12-25T14:31:11.588Z,37.40
2022-12-25T14:36:34.397Z,49.70
2022-12-25T14:41:56.827Z,121.80
2022-12-25T14:47:20.889Z,104.40
2022-12-25T14:52:43.693Z,96.50
2022-12-25T14:58:06.306Z,95.70
2022-12-25T15:03:34.535Z,102.60
2022-12-25T15:09:01.989Z,105.00
2022-12-25T15:14:25.080Z,81.00
2022-12-25T15:19:46.990Z,132.70
2022-12-25T15:25:14.438Z,96.50
2022-12-25T15:30:39.418Z,152.90
2022-12-25T15:36:01.117Z,171.80
2022-12-25T15:41:44.235Z,136.60
2022-12-25T15:47:06.560Z,84.20
2022-12-25T15:52:28.531Z,90.30
2022-12-25T15:57:52.407Z,74.80
2022-12-25T16:03:14.069Z,87.60
2022-12-25T16:08:36.368Z,77.30
2022-12-25T16:13:58.163Z,90.60
2022-12-25T16:19:20.225Z,92.90
2022-12-25T16:24:42.107Z,99.80
2022-12-25T16:30:04.592Z,107.30
2022-12-25T16:35:26.518Z,94.60
2022-12-25T16:40:59.790Z,112.90
2022-12-25T16:46:22.541Z,78.60
2022-12-25T16:51:44.347Z,72.00
2022-12-25T16:57:06.226Z,57.90
2022-12-25T17:02:28.458Z,68.00
2022-12-25T17:07:51.774Z,63.70
2022-12-25T17:13:13.984Z,62.60
2022-12-25T17:18:35.900Z,64.40
2022-12-25T17:24:03.090Z,78.80
2022-12-25T17:29:25.489Z,76.30
2022-12-25T17:34:47.510Z,75.80
2022-12-25T17:40:10.219Z,76.60
2022-12-25T17:45:31.924Z,80.40
2022-12-25T17:50:53.930Z,87.90
2022-12-25T17:56:16.859Z,88.90
2022-12-25T18:01:40.149Z,70.00
2022-12-25T18:07:03.499Z,74.70
2022-12-25T18:12:25.631Z,77.70
2022-12-25T18:17:47.869Z,79.00
2022-12-25T18:23:09.590Z,73.50
2022-12-25T18:28:32.220Z,91.80
2022-12-25T18:33:54.171Z,102.30
2022-12-25T18:39:16.089Z,103.00
2022-12-25T18:44:38.814Z,87.00
2022-12-25T18:50:01.455Z,56.90
2022-12-25T18:55:23.072Z,62.70
2022-12-25T19:00:45.330Z,84.40
2022-12-25T19:06:10.161Z,85.70
2022-12-25T19:11:31.972Z,92.80
2022-12-25T19:16:57.814Z,89.80
2022-12-25T19:22:19.549Z,82.10
2022-12-25T19:27:41.429Z,88.00
2022-12-25T19:33:03.190Z,87.40
2022-12-25T19:38:25.631Z,85.00
2022-12-25T19:43:48.968Z,89.80
2022-12-25T19:49:13.384Z,83.30
2022-12-25T19:54:35.233Z,102.20
2022-12-25T19:59:57.087Z,94.60
2022-12-25T20:05:18.790Z,101.80
2022-12-25T20:10:44.635Z,103.70
2022-12-25T20:16:09.030Z,88.90
2022-12-25T20:21:31.148Z,83.90
2022-12-25T20:26:58.852Z,85.00
2022-12-25T20:32:21.458Z,101.30
2022-12-25T20:37:43.686Z,88.50
2022-12-25T20:43:05.667Z,74.20
2022-12-25T20:48:28.071Z,82.10
2022-12-25T20:53:50.243Z,70.00
2022-12-25T20:59:12.739Z,61.50
2022-12-25T21:04:35.796Z,66.50
2022-12-25T21:09:57.863Z,90.50
2022-12-25T21:15:19.927Z,56.60
2022-12-25T21:20:44.490Z,74.10
2022-12-25T21:26:11.401Z,73.80
2022-12-25T21:31:56.153Z,78.00
2022-12-25T21:37:18.156Z,78.50
2022-12-25T21:42:39.981Z,97.00
2022-12-25T21:48:03.653Z,78.50
2022-12-25T21:53:25.403Z,75.80
2022-12-25T21:58:47.584Z,75.60
2022-12-25T22:04:09.731Z,82.90
2022-12-25T22:09:32.427Z,78.40
2022-12-25T22:14:58.048Z,93.60
2022-12-25T22:20:22.584Z,84.20
2022-12-25T22:25:44.348Z,77.70
2022-12-25T22:31:07.218Z,80.70
2022-12-25T22:36:28.811Z,81.90
2022-12-25T22:41:51.020Z,62.90
2022-12-25T22:47:12.728Z,57.20
2022-12-25T22:52:34.770Z,54.00
2022-12-25T22:57:56.929Z,57.50
2022-12-25T23:03:18.967Z,68.00
2022-12-25T23:08:40.901Z,52.70
2022-12-25T23:14:21.287Z,54.40
2022-12-25T23:20:01.672Z,49.70
2022-12-25T23:25:42.168Z,60.90
2022-12-25T23:31:04.306Z,60.00
2022-12-25T23:36:26.137Z,82.90
2022-12-25T23:41:48.174Z,70.70
2022-12-25T23:47:10.083Z,67.20
2022-12-25T23:52:32.216Z,63.00
2022-12-25T23:57:54.252Z,45.00
